Kezdőlap
METAR-TAF:

Repülőterek :

Budapest, Magyarország

Budapest Liszt Ferenc nemzetközi repülőtér

földrajzi szélesség: 47-26N, földrajzi hosszúság: 019-16E, magasság: 151 m

Jelenlegi meteorológiai megfigyelések

A jelentés 32 perccel ezelõtt készült, 21:30 UTC
Keleti szél 4 kt
Hőmérséklet 19°C
Páratartalom 88%
Légköri nyomás 1012 hPa
Látótávolság 10 km, vagy több
felhőtlen 1500 m magasságban, és nincs gomolyfelhõ

METAR: LHBP 282130Z 08004KT CAVOK 19/17 Q1012 NOSIG

Idő: 00:02 (22:02 UTC)

Előrejelzés

A jelentés 5 órával és 2 perccel ezelõtt készült, 17:00 UTC
Az előrejelzés 28-én 18 óra UTC és 29-én 18 óra UTC között érvényes
Kelet-délkeleti szél 6 kt
Látótávolság 10 km, vagy több
felhőtlen 1500 m magasságban, és nincs gomolyfelhõ
29-én 07 óra UTC és 29-én 09 óra UTC között fokozatosan kialakuló
Délkeleti szél 11 kt

TAF: LHBP 281700Z 2818/2918 12006KT CAVOK BECMG 2907/2909 13011KT

METAR-TAF

Meteorológiai megfigyelések és előrejelzések több, mint 4000 repülőtéren (METAR és TAF jelentéseket).

A térképen piros és sárga pontok jelzik az elérhető meteorológiai állomásokat.

Mozgassa az egeret a pont fölött, hogy megjelenjen az állomás neve.

Azután kattintson az időjárási megfigyelések és előrejelzések megtekintéséhez.

A térkép megváltoztatása: kattintson a fekete keresztel jelölt zöld gombra ráközelítéshez, a vonallal jelölt zöld gombra távolításhoz, vagy a zöld nyilakra a szomszédos térképek eléréséhez.


METAR-TAF: